createdAt,value
2019-02-10T00:02:17.869Z,22.63
2019-02-10T00:04:47.955Z,22.40
2019-02-10T00:07:17.882Z,24.57
2019-02-10T00:09:48.002Z,23.90
2019-02-10T00:12:18.045Z,22.17
2019-02-10T00:14:48.173Z,23.52
2019-02-10T00:17:18.383Z,24.65
2019-02-10T00:19:48.379Z,23.60
2019-02-10T00:22:20.284Z,19.73
2019-02-10T00:24:50.372Z,19.47
2019-02-10T00:27:20.416Z,19.53
2019-02-10T00:29:50.308Z,19.80
2019-02-10T00:32:20.551Z,19.98
2019-02-10T00:34:52.044Z,15.43
2019-02-10T00:37:22.029Z,18.02
2019-02-10T00:39:52.111Z,21.50
2019-02-10T00:42:24.343Z,17.90
2019-02-10T00:44:54.383Z,16.03
2019-02-10T00:47:24.478Z,18.90
2019-02-10T00:49:54.875Z,15.43
2019-02-10T00:52:24.949Z,16.20
2019-02-10T00:54:55.056Z,20.23
2019-02-10T00:57:24.990Z,20.27
2019-02-10T00:59:55.063Z,18.43
2019-02-10T01:02:25.136Z,21.53
2019-02-10T01:04:56.828Z,21.20
2019-02-10T01:07:26.837Z,18.52
2019-02-10T01:09:56.856Z,20.40
2019-02-10T01:12:28.900Z,21.60
2019-02-10T01:14:58.984Z,19.80
2019-02-10T01:17:30.896Z,19.23
2019-02-10T01:20:00.901Z,15.77
2019-02-10T01:22:31.130Z,18.10
2019-02-10T01:25:02.114Z,20.07
2019-02-10T01:27:32.349Z,20.43
2019-02-10T01:30:04.720Z,16.87
2019-02-10T01:32:36.921Z,21.43
2019-02-10T01:35:07.466Z,20.97
2019-02-10T01:37:37.632Z,21.73
2019-02-10T01:40:08.815Z,15.87
2019-02-10T01:42:38.975Z,21.33
2019-02-10T01:45:10.467Z,20.87
2019-02-10T01:47:40.595Z,20.80
2019-02-10T01:50:11.478Z,21.27
2019-02-10T01:52:41.455Z,20.87
2019-02-10T01:55:13.139Z,20.77
2019-02-10T01:57:43.249Z,21.43
2019-02-10T02:00:15.057Z,21.93
2019-02-10T02:02:45.156Z,19.90
2019-02-10T02:05:15.298Z,19.90
2019-02-10T02:07:45.339Z,20.20
2019-02-10T02:10:18.136Z,19.93
2019-02-10T02:12:49.854Z,21.53
2019-02-10T02:15:21.815Z,17.27
2019-02-10T02:17:51.795Z,18.00
2019-02-10T02:20:21.775Z,19.47
2019-02-10T02:22:53.003Z,19.95
2019-02-10T02:25:23.040Z,19.40
2019-02-10T02:27:56.037Z,15.05
2019-02-10T02:30:38.294Z,19.20
2019-02-10T02:33:21.017Z,18.87
2019-02-10T02:35:51.191Z,13.90
2019-02-10T02:38:21.224Z,20.25
2019-02-10T02:40:51.252Z,14.98
2019-02-10T02:43:21.317Z,20.60
2019-02-10T02:45:51.616Z,15.18
2019-02-10T02:48:21.532Z,18.00
2019-02-10T02:50:51.691Z,17.92
2019-02-10T02:53:21.628Z,18.67
2019-02-10T02:55:51.748Z,15.67
2019-02-10T02:58:21.763Z,16.23
2019-02-10T03:00:52.072Z,19.98
2019-02-10T03:03:22.021Z,15.03
2019-02-10T03:05:52.118Z,20.07
2019-02-10T03:08:22.381Z,19.00
2019-02-10T03:10:52.459Z,16.03
2019-02-10T03:13:22.498Z,18.00
2019-02-10T03:15:52.832Z,12.70
2019-02-10T03:18:22.897Z,17.23
2019-02-10T03:20:52.871Z,15.67
2019-02-10T03:23:22.776Z,13.57
2019-02-10T03:25:52.719Z,16.20
2019-02-10T03:28:23.635Z,17.60
2019-02-10T03:31:06.157Z,17.57
2019-02-10T03:33:36.194Z,15.78
2019-02-10T03:36:25.359Z,16.17
2019-02-10T03:38:55.397Z,15.63
2019-02-10T03:41:25.314Z,17.23
2019-02-10T03:43:55.509Z,16.73
2019-02-10T03:46:25.497Z,13.93
2019-02-10T03:48:55.432Z,16.03
2019-02-10T03:51:25.311Z,13.57
2019-02-10T03:54:08.429Z,17.07
2019-02-10T03:56:39.483Z,14.67
2019-02-10T03:59:09.501Z,16.47
2019-02-10T04:01:39.420Z,13.88
2019-02-10T04:04:09.406Z,14.90
2019-02-10T04:06:39.324Z,17.10
2019-02-10T04:09:09.482Z,16.80
2019-02-10T04:11:39.498Z,16.95
2019-02-10T04:14:09.467Z,17.00
2019-02-10T04:16:39.442Z,16.60
2019-02-10T04:19:09.467Z,15.90
2019-02-10T04:21:39.857Z,17.33
2019-02-10T04:24:09.811Z,17.57
2019-02-10T04:26:39.947Z,18.87
2019-02-10T04:29:09.892Z,17.12
2019-02-10T04:31:39.782Z,14.70
2019-02-10T04:34:09.619Z,14.87
2019-02-10T04:36:39.547Z,16.20
2019-02-10T04:39:09.493Z,15.63
2019-02-10T04:41:39.392Z,13.35
2019-02-10T04:44:09.343Z,16.43
2019-02-10T04:46:39.422Z,15.50
2019-02-10T04:49:09.379Z,16.62
2019-02-10T04:51:39.450Z,16.60
2019-02-10T04:54:09.334Z,16.60
2019-02-10T04:56:39.280Z,13.33
2019-02-10T04:59:09.881Z,15.67
2019-02-10T05:01:40.261Z,16.23
2019-02-10T05:04:10.242Z,14.23
2019-02-10T05:06:40.286Z,14.70
2019-02-10T05:09:10.261Z,16.77
2019-02-10T05:11:40.378Z,16.73
2019-02-10T05:14:10.387Z,16.77
2019-02-10T05:16:40.399Z,15.00
2019-02-10T05:19:10.418Z,12.93
2019-02-10T05:21:40.411Z,15.00
2019-02-10T05:24:10.385Z,14.47
2019-02-10T05:26:40.479Z,14.40
2019-02-10T05:29:10.597Z,15.15
2019-02-10T05:31:40.650Z,14.77
2019-02-10T05:34:10.589Z,15.00
2019-02-10T05:36:40.875Z,12.90
2019-02-10T05:39:10.846Z,12.97
2019-02-10T05:41:41.823Z,15.28
2019-02-10T05:44:12.374Z,15.77
2019-02-10T05:46:46.306Z,14.23
2019-02-10T05:49:19.099Z,9.70
2019-02-10T05:51:49.232Z,14.33
2019-02-10T05:54:19.337Z,12.80
2019-02-10T05:56:49.399Z,14.70
2019-02-10T05:59:19.477Z,13.90
2019-02-10T06:02:27.698Z,14.07
2019-02-10T06:05:00.875Z,13.17
2019-02-10T06:07:30.978Z,15.50
2019-02-10T06:10:01.047Z,14.20
2019-02-10T06:12:31.200Z,14.37
2019-02-10T06:15:01.445Z,12.43
2019-02-10T06:17:31.597Z,14.47
2019-02-10T06:20:01.853Z,13.98
2019-02-10T06:22:31.910Z,12.68
2019-02-10T06:25:02.097Z,15.20
2019-02-10T06:27:32.058Z,13.17
2019-02-10T06:30:02.104Z,14.15
2019-02-10T06:32:32.305Z,12.70
2019-02-10T06:35:02.334Z,14.53
2019-02-10T06:37:32.431Z,14.17
2019-02-10T06:40:02.582Z,14.13
2019-02-10T06:42:32.763Z,14.50
2019-02-10T06:45:02.823Z,15.08
2019-02-10T06:47:32.882Z,14.98
2019-02-10T06:50:03.109Z,14.78
2019-02-10T06:52:33.999Z,14.18
2019-02-10T06:55:17.442Z,12.98
2019-02-10T06:57:47.710Z,12.43
2019-02-10T07:00:29.319Z,14.60
2019-02-10T07:03:56.746Z,14.03
2019-02-10T07:06:27.232Z,14.18
2019-02-10T07:08:57.403Z,11.53
2019-02-10T07:11:27.492Z,13.33
2019-02-10T07:13:59.640Z,11.88
2019-02-10T07:16:57.240Z,14.43
2019-02-10T07:20:05.840Z,13.87
2019-02-10T07:22:56.579Z,11.13
2019-02-10T07:25:46.422Z,12.25
2019-02-10T07:28:40.285Z,8.33
2019-02-10T07:31:10.582Z,13.23
2019-02-10T07:34:02.123Z,13.30
2019-02-10T07:36:56.347Z,12.33
2019-02-10T07:39:50.573Z,13.50
2019-02-10T07:42:49.816Z,11.38
2019-02-10T07:45:58.162Z,11.75
2019-02-10T07:48:36.913Z,11.75
2019-02-10T07:51:34.041Z,10.10
2019-02-10T07:54:16.807Z,9.20
2019-02-10T07:57:26.989Z,12.47
2019-02-10T08:00:22.173Z,10.00
2019-02-10T08:03:17.779Z,12.65
2019-02-10T08:06:26.217Z,12.05
2019-02-10T08:09:34.907Z,11.97
2019-02-10T08:12:43.920Z,12.95
2019-02-10T08:15:42.432Z,13.45
2019-02-10T08:18:21.587Z,11.80
2019-02-10T08:21:18.536Z,13.08
2019-02-10T08:23:59.466Z,14.00
2019-02-10T08:27:07.913Z,12.55
2019-02-10T08:30:01.450Z,12.60
2019-02-10T08:32:55.240Z,11.70
2019-02-10T08:35:49.070Z,10.93
2019-02-10T08:38:54.426Z,12.60
2019-02-10T08:42:00.737Z,9.98
2019-02-10T08:44:44.887Z,11.65
2019-02-10T08:47:40.462Z,10.65
2019-02-10T08:50:38.942Z,12.30
2019-02-10T08:53:20.520Z,11.68
2019-02-10T08:55:53.232Z,13.40
2019-02-10T08:58:37.907Z,11.85
2019-02-10T09:01:08.780Z,13.20
2019-02-10T09:03:39.643Z,9.40
2019-02-10T09:06:10.533Z,11.50
2019-02-10T09:08:41.188Z,12.85
2019-02-10T09:11:14.120Z,10.35
2019-02-10T09:13:47.559Z,14.40
2019-02-10T09:16:22.262Z,11.75
2019-02-10T09:19:02.557Z,12.63
2019-02-10T09:21:58.481Z,13.03
2019-02-10T09:24:39.286Z,10.30
2019-02-10T09:27:10.693Z,12.47
2019-02-10T09:29:40.936Z,12.28
2019-02-10T09:32:12.471Z,12.15
2019-02-10T09:34:54.572Z,10.45
2019-02-10T09:37:27.075Z,11.20
2019-02-10T09:39:57.251Z,13.08
2019-02-10T09:42:32.024Z,10.13
2019-02-10T09:45:05.741Z,12.95
2019-02-10T09:47:36.701Z,13.00
2019-02-10T09:50:13.208Z,11.85
2019-02-10T09:52:50.130Z,10.80
2019-02-10T09:55:22.761Z,13.70
2019-02-10T09:57:56.397Z,11.53
2019-02-10T10:00:31.801Z,12.43
2019-02-10T10:03:07.715Z,11.03
2019-02-10T10:05:39.488Z,10.98
2019-02-10T10:08:22.155Z,8.08
2019-02-10T10:10:54.955Z,10.20
2019-02-10T10:13:25.080Z,8.85
2019-02-10T10:15:55.313Z,12.63
2019-02-10T10:18:25.446Z,10.78
2019-02-10T10:21:07.182Z,13.35
2019-02-10T10:23:37.792Z,10.10
2019-02-10T10:26:07.925Z,11.95
2019-02-10T10:28:38.038Z,10.75
2019-02-10T10:31:09.348Z,11.35
2019-02-10T10:33:39.608Z,10.70
2019-02-10T10:36:09.962Z,10.72
2019-02-10T10:38:52.398Z,10.48
2019-02-10T10:41:22.630Z,10.23
2019-02-10T10:43:54.082Z,10.23
2019-02-10T10:46:24.195Z,9.53
2019-02-10T10:48:54.602Z,9.70
2019-02-10T10:51:24.954Z,8.43
2019-02-10T10:53:55.195Z,9.75
2019-02-10T10:56:27.032Z,9.38
2019-02-10T10:58:59.663Z,9.33
2019-02-10T11:01:42.635Z,9.48
2019-02-10T11:04:13.168Z,8.45
2019-02-10T11:06:43.250Z,8.15
2019-02-10T11:09:14.463Z,8.93
2019-02-10T11:11:44.802Z,9.55
2019-02-10T11:14:15.114Z,8.95
2019-02-10T11:16:45.434Z,9.43
2019-02-10T11:19:15.581Z,8.60
2019-02-10T11:21:45.755Z,8.50
2019-02-10T11:24:15.962Z,9.10
2019-02-10T11:26:46.192Z,10.40
2019-02-10T11:29:16.589Z,10.20
2019-02-10T11:31:46.627Z,10.80
2019-02-10T11:34:16.912Z,9.08
2019-02-10T11:36:46.947Z,9.80
2019-02-10T11:39:17.196Z,9.35
2019-02-10T11:41:47.252Z,8.05
2019-02-10T11:44:17.604Z,9.18
2019-02-10T11:46:47.947Z,9.40
2019-02-10T11:49:19.755Z,9.58
2019-02-10T11:51:49.954Z,9.25
2019-02-10T11:54:20.306Z,10.82
2019-02-10T11:56:50.643Z,8.65
2019-02-10T11:59:20.735Z,9.50
2019-02-10T12:01:50.854Z,10.08
2019-02-10T12:04:20.951Z,9.60
2019-02-10T12:06:50.975Z,9.58
2019-02-10T12:09:21.093Z,8.85
2019-02-10T12:11:51.228Z,9.50
2019-02-10T12:14:21.524Z,8.80
2019-02-10T12:16:51.656Z,8.83
2019-02-10T12:19:21.708Z,8.68
2019-02-10T12:21:51.750Z,10.45
2019-02-10T12:24:22.370Z,9.55
2019-02-10T12:26:52.455Z,9.15
2019-02-10T12:29:22.637Z,10.20
2019-02-10T12:31:52.724Z,11.10
2019-02-10T12:34:24.068Z,9.33
2019-02-10T12:36:54.561Z,10.80
2019-02-10T12:39:24.848Z,10.10
2019-02-10T12:41:55.108Z,9.70
2019-02-10T12:44:25.328Z,10.08
2019-02-10T12:46:55.428Z,9.80
2019-02-10T12:49:25.500Z,9.70
2019-02-10T12:51:55.565Z,9.18
2019-02-10T12:54:25.626Z,9.43
2019-02-10T12:56:55.780Z,9.73
2019-02-10T12:59:25.915Z,9.30
2019-02-10T13:01:56.094Z,9.75
2019-02-10T13:04:26.297Z,12.18
2019-02-10T13:06:56.398Z,9.53
2019-02-10T13:09:26.485Z,11.43
2019-02-10T13:11:58.438Z,10.70
2019-02-10T13:14:28.512Z,9.93
2019-02-10T13:16:59.377Z,9.60
2019-02-10T13:19:29.507Z,9.18
2019-02-10T13:21:59.685Z,9.58
2019-02-10T13:24:29.705Z,9.38
2019-02-10T13:26:59.962Z,8.15
2019-02-10T13:29:30.288Z,9.20
2019-02-10T13:32:00.411Z,10.78
2019-02-10T13:34:30.705Z,9.53
2019-02-10T13:37:00.898Z,9.05
2019-02-10T13:39:30.965Z,9.00
2019-02-10T13:42:02.772Z,9.38
2019-02-10T13:44:33.006Z,9.43
2019-02-10T13:47:03.225Z,9.10
2019-02-10T13:49:34.357Z,9.18
2019-02-10T13:52:04.450Z,9.50
2019-02-10T13:54:36.439Z,10.00
2019-02-10T13:57:06.417Z,8.60
2019-02-10T13:59:36.768Z,8.88
2019-02-10T14:02:06.956Z,9.48
2019-02-10T14:04:37.157Z,9.30
2019-02-10T14:07:07.269Z,9.43
2019-02-10T14:09:37.410Z,9.65
2019-02-10T14:12:07.579Z,10.72
2019-02-10T14:14:37.800Z,11.05
2019-02-10T14:17:07.885Z,11.12
2019-02-10T14:19:39.023Z,10.13
2019-02-10T14:22:09.118Z,9.88
2019-02-10T14:24:39.277Z,10.75
2019-02-10T14:27:09.315Z,11.12
2019-02-10T14:29:39.403Z,11.05
2019-02-10T14:32:09.574Z,11.43
2019-02-10T14:34:39.663Z,12.43
2019-02-10T14:37:09.734Z,12.90
2019-02-10T14:39:39.877Z,11.80
2019-02-10T14:42:09.933Z,12.63
2019-02-10T14:44:40.025Z,14.78
2019-02-10T14:47:10.285Z,13.00
2019-02-10T14:49:40.340Z,13.32
2019-02-10T14:52:10.638Z,15.15
2019-02-10T14:54:40.900Z,15.72
2019-02-10T14:57:11.159Z,14.35
2019-02-10T14:59:41.282Z,13.98
2019-02-10T15:02:13.477Z,13.22
2019-02-10T15:04:43.608Z,14.63
2019-02-10T15:07:13.777Z,12.58
2019-02-10T15:09:43.812Z,12.55
2019-02-10T15:12:14.010Z,14.68
2019-02-10T15:14:44.157Z,15.30
2019-02-10T15:17:27.062Z,15.70
2019-02-10T15:20:01.668Z,16.80
2019-02-10T15:22:32.398Z,16.23
2019-02-10T15:25:03.789Z,14.75
2019-02-10T15:27:36.257Z,13.78
2019-02-10T15:30:16.150Z,13.48
2019-02-10T15:32:51.727Z,13.30
2019-02-10T15:35:31.857Z,12.35
2019-02-10T15:38:04.818Z,13.80
2019-02-10T15:40:35.479Z,12.50
2019-02-10T15:43:10.555Z,12.80
2019-02-10T15:45:42.530Z,13.05
2019-02-10T15:48:12.615Z,14.68
2019-02-10T15:50:43.995Z,13.35
2019-02-10T15:53:26.265Z,13.25
2019-02-10T15:55:56.232Z,14.95
2019-02-10T15:58:26.580Z,15.48
2019-02-10T16:00:56.770Z,15.00
2019-02-10T16:03:26.898Z,15.78
2019-02-10T16:05:57.231Z,16.50
2019-02-10T16:08:27.602Z,14.65
2019-02-10T16:10:59.962Z,16.70
2019-02-10T16:13:30.656Z,15.83
2019-02-10T16:16:05.907Z,18.50
2019-02-10T16:18:36.237Z,19.40
2019-02-10T16:21:06.824Z,20.20
2019-02-10T16:23:38.175Z,20.30
2019-02-10T16:26:08.698Z,20.37
2019-02-10T16:28:39.658Z,19.35
2019-02-10T16:31:11.038Z,19.23
2019-02-10T16:33:41.993Z,19.00
2019-02-10T16:36:13.653Z,19.10
2019-02-10T16:38:44.028Z,20.15
2019-02-10T16:41:14.899Z,18.95
2019-02-10T16:43:45.365Z,19.70
2019-02-10T16:46:16.180Z,19.75
2019-02-10T16:48:46.723Z,21.85
2019-02-10T16:51:18.932Z,20.02
2019-02-10T16:53:49.213Z,20.57
2019-02-10T16:56:47.950Z,21.02
2019-02-10T16:59:48.195Z,21.65
2019-02-10T17:02:36.200Z,21.35
2019-02-10T17:05:37.209Z,21.60
2019-02-10T17:08:46.821Z,21.27
2019-02-10T17:11:55.540Z,21.82
2019-02-10T17:14:36.477Z,25.70
2019-02-10T17:17:30.602Z,23.32
2019-02-10T17:20:32.384Z,24.57
2019-02-10T17:23:45.361Z,25.45
2019-02-10T17:26:36.608Z,25.17
2019-02-10T17:29:07.277Z,25.82
2019-02-10T17:31:39.494Z,21.25
2019-02-10T17:34:09.819Z,24.55
2019-02-10T17:36:40.204Z,24.23
2019-02-10T17:39:15.593Z,24.75
2019-02-10T17:41:54.594Z,24.37
2019-02-10T17:44:30.182Z,24.50
2019-02-10T17:47:16.053Z,25.82
2019-02-10T17:49:47.287Z,27.77
2019-02-10T17:52:17.836Z,28.67
2019-02-10T17:55:07.318Z,25.95
2019-02-10T17:57:48.625Z,23.30
2019-02-10T18:00:23.196Z,23.38
2019-02-10T18:02:53.794Z,22.35
2019-02-10T18:05:24.134Z,21.02
2019-02-10T18:07:54.413Z,21.02
2019-02-10T18:10:24.814Z,22.67
2019-02-10T18:12:56.234Z,24.80
2019-02-10T18:15:45.454Z,22.67
2019-02-10T18:18:36.294Z,21.97
2019-02-10T18:21:25.540Z,21.55
2019-02-10T18:24:15.014Z,23.40
2019-02-10T18:26:59.892Z,22.62
2019-02-10T18:29:38.274Z,25.48
2019-02-10T18:32:27.568Z,24.87
2019-02-10T18:35:17.038Z,25.60
2019-02-10T18:37:56.675Z,22.87
2019-02-10T18:40:46.016Z,22.15
2019-02-10T18:43:35.334Z,22.13
2019-02-10T18:46:14.994Z,22.05
2019-02-10T18:48:57.594Z,22.27
2019-02-10T18:51:44.232Z,20.45
2019-02-10T18:54:59.227Z,19.50
2019-02-10T18:58:03.031Z,21.85
2019-02-10T19:01:06.574Z,20.40
2019-02-10T19:04:00.852Z,20.80
2019-02-10T19:06:50.084Z,20.40
2019-02-10T19:09:39.504Z,22.02
2019-02-10T19:12:15.435Z,22.30
2019-02-10T19:15:04.798Z,23.32
2019-02-10T19:17:55.013Z,19.82
2019-02-10T19:20:46.157Z,21.23
2019-02-10T19:23:35.265Z,22.85
2019-02-10T19:26:24.590Z,22.15
2019-02-10T19:29:13.683Z,21.30
2019-02-10T19:31:58.829Z,22.75
2019-02-10T19:34:52.609Z,22.20
2019-02-10T19:37:40.541Z,20.97
2019-02-10T19:40:29.009Z,21.40
2019-02-10T19:43:18.249Z,22.60
2019-02-10T19:45:57.183Z,22.70
2019-02-10T19:48:49.791Z,23.73
2019-02-10T19:51:48.070Z,24.52
2019-02-10T19:54:24.923Z,21.45
2019-02-10T19:57:14.298Z,23.50
2019-02-10T20:00:02.051Z,24.87
2019-02-10T20:02:51.402Z,23.98
2019-02-10T20:05:28.094Z,22.90
2019-02-10T20:08:20.110Z,23.52
2019-02-10T20:11:20.465Z,22.50
2019-02-10T20:14:09.662Z,22.58
2019-02-10T20:16:58.966Z,22.25
2019-02-10T20:19:42.146Z,22.62
2019-02-10T20:22:24.342Z,23.25
2019-02-10T20:25:12.642Z,22.35
2019-02-10T20:27:57.322Z,23.70
2019-02-10T20:30:46.498Z,23.80
2019-02-10T20:33:59.598Z,22.98
2019-02-10T20:37:16.782Z,22.58
2019-02-10T20:40:16.898Z,22.90
2019-02-10T20:43:19.915Z,23.80
2019-02-10T20:46:25.593Z,22.33
2019-02-10T20:49:23.703Z,23.67
2019-02-10T20:52:14.691Z,22.32
2019-02-10T20:54:57.683Z,23.25
2019-02-10T20:57:37.127Z,24.67
2019-02-10T21:00:26.099Z,25.12
2019-02-10T21:03:15.374Z,22.95
2019-02-10T21:06:04.426Z,23.50
2019-02-10T21:08:53.623Z,21.80
2019-02-10T21:11:39.873Z,21.37
2019-02-10T21:14:21.438Z,23.40
2019-02-10T21:17:05.575Z,24.13
2019-02-10T21:19:54.808Z,23.30
2019-02-10T21:22:32.931Z,23.12
2019-02-10T21:25:21.889Z,23.47
2019-02-10T21:28:01.304Z,23.55
2019-02-10T21:30:44.244Z,23.65
2019-02-10T21:33:33.428Z,24.57
2019-02-10T21:36:22.604Z,22.87
2019-02-10T21:39:01.505Z,24.27
2019-02-10T21:41:52.340Z,23.15
2019-02-10T21:44:41.417Z,23.30
2019-02-10T21:47:23.916Z,21.97
2019-02-10T21:49:53.982Z,23.77
2019-02-10T21:52:24.109Z,23.77
2019-02-10T21:54:54.267Z,22.47
2019-02-10T21:57:24.981Z,23.07
2019-02-10T21:59:57.181Z,22.93
2019-02-10T22:02:27.217Z,22.25
2019-02-10T22:04:57.330Z,22.37
2019-02-10T22:07:27.628Z,22.15
2019-02-10T22:09:57.858Z,23.27
2019-02-10T22:12:36.833Z,23.20
2019-02-10T22:15:01.155Z,21.48
2019-02-10T22:17:31.436Z,23.27
2019-02-10T22:20:01.624Z,22.98
2019-02-10T22:22:31.740Z,22.82
2019-02-10T22:25:02.303Z,22.70
2019-02-10T22:27:32.559Z,22.45
2019-02-10T22:30:02.657Z,24.47
2019-02-10T22:32:32.819Z,23.52
2019-02-10T22:35:02.821Z,23.33
2019-02-10T22:37:33.060Z,25.60
2019-02-10T22:40:03.284Z,24.70
2019-02-10T22:42:33.404Z,23.67
2019-02-10T22:45:03.610Z,24.57
2019-02-10T22:47:33.862Z,23.60
2019-02-10T22:50:06.178Z,23.55
2019-02-10T22:52:36.283Z,23.18
2019-02-10T22:55:06.838Z,22.93
2019-02-10T22:57:37.009Z,24.00
2019-02-10T23:00:47.951Z,22.93
2019-02-10T23:03:18.669Z,25.27
2019-02-10T23:05:48.872Z,23.32
2019-02-10T23:08:19.451Z,24.50
2019-02-10T23:10:52.009Z,24.10
2019-02-10T23:13:34.874Z,23.67
2019-02-10T23:16:06.276Z,24.23
2019-02-10T23:18:36.463Z,23.95
2019-02-10T23:21:06.564Z,25.00
2019-02-10T23:23:36.523Z,24.77
2019-02-10T23:26:06.823Z,24.18
2019-02-10T23:28:36.913Z,22.93
2019-02-10T23:31:19.913Z,24.47
2019-02-10T23:33:49.933Z,24.65
2019-02-10T23:36:20.011Z,23.22
2019-02-10T23:38:49.981Z,25.80
2019-02-10T23:41:20.078Z,25.00
2019-02-10T23:43:50.204Z,24.40
2019-02-10T23:46:20.442Z,24.02
2019-02-10T23:48:50.576Z,23.73
2019-02-10T23:51:20.531Z,23.60
2019-02-10T23:53:50.477Z,24.57
2019-02-10T23:56:20.484Z,23.52
2019-02-10T23:58:50.509Z,22.65
